Time;durP1;ratioP1;P1;durP2;ratioP2;P2;SDS_P1;SDS_P2;PMS_P1;PMS_P2;Temp;Humidity;BMP_temperature;BMP_pressure;BME280_temperature;BME280_humidity;BME280_pressure;Samples;Min_cycle;Max_cycle;Signal;HPM_P1;HPM_P2
2022/08/29 00:00:19;;;;;;;5.45;1.98;;;17.50;99.90;;;;;;5072533;28;20140;-80
2022/08/29 00:02:49;;;;;;;3.97;2.00;;;17.50;99.90;;;;;;5055657;28;20076;-80
2022/08/29 00:05:17;;;;;;;4.63;2.22;;;17.50;99.90;;;;;;5072609;28;20494;-81
2022/08/29 00:07:42;;;;;;;5.38;2.25;;;17.50;99.90;;;;;;5072232;28;20045;-80
2022/08/29 00:10:08;;;;;;;6.75;2.60;;;17.50;99.90;;;;;;5060587;28;20059;-81
2022/08/29 00:12:35;;;;;;;4.95;1.98;;;17.50;99.90;;;;;;5019101;28;20049;-81
2022/08/29 00:15:01;;;;;;;5.75;1.92;;;17.40;99.90;;;;;;5052333;28;20481;-82
2022/08/29 00:17:27;;;;;;;4.40;2.17;;;17.40;99.90;;;;;;5052728;28;20116;-81
2022/08/29 00:19:53;;;;;;;4.60;2.20;;;17.40;99.90;;;;;;5035201;28;20198;-79
2022/08/29 00:22:19;;;;;;;4.50;2.25;;;17.30;99.90;;;;;;5035411;28;20041;-80
2022/08/29 00:24:44;;;;;;;6.43;2.20;;;17.30;99.90;;;;;;5052252;28;20043;-79
2022/08/29 00:27:10;;;;;;;6.85;2.17;;;17.30;99.90;;;;;;5052582;28;20090;-79
2022/08/29 00:29:35;;;;;;;7.90;2.60;;;17.30;99.90;;;;;;5051806;28;20475;-79
2022/08/29 00:32:01;;;;;;;5.35;2.22;;;17.30;99.90;;;;;;5063305;28;20092;-79
2022/08/29 00:34:27;;;;;;;4.55;2.33;;;17.20;99.90;;;;;;5071950;28;20115;-79
2022/08/29 00:36:53;;;;;;;5.13;2.40;;;17.20;99.90;;;;;;5054833;28;20090;-79
2022/08/29 00:39:19;;;;;;;;;;;17.20;99.90;;;;;;5055440;28;20124;-79
2022/08/29 00:41:45;;;;;;;6.95;2.67;;;17.20;99.90;;;;;;5071790;28;19970;-79
2022/08/29 00:44:10;;;;;;;6.22;2.25;;;17.20;99.90;;;;;;5054823;28;20403;-79
2022/08/29 00:46:40;;;;;;;4.88;2.30;;;17.20;99.90;;;;;;5071525;28;20507;-80
2022/08/29 00:49:22;;;;;;;7.45;2.63;;;17.20;99.90;;;;;;5054799;28;20044;-79
2022/08/29 00:51:48;;;;;;;5.65;2.17;;;17.20;99.90;;;;;;5035189;28;20530;-79
2022/08/29 00:54:14;;;;;;;4.60;2.47;;;17.10;99.90;;;;;;5034676;28;20127;-79
2022/08/29 00:56:41;;;;;;;6.50;1.98;;;17.10;99.90;;;;;;5051518;28;20047;-80
2022/08/29 00:59:21;;;;;;;6.35;2.35;;;17.10;99.90;;;;;;5051205;28;20047;-79
2022/08/29 01:01:47;;;;;;;8.95;3.08;;;17.10;99.90;;;;;;5034676;28;20080;-79
2022/08/29 01:04:13;;;;;;;10.25;2.88;;;17.10;99.90;;;;;;5034792;28;20095;-79
2022/08/29 01:06:40;;;;;;;5.97;2.40;;;17.10;99.90;;;;;;5051022;28;20444;-79
2022/08/29 01:09:08;;;;;;;6.47;2.30;;;17.10;99.90;;;;;;5034735;28;20132;-79
2022/08/29 01:14:21;;;;;;;5.35;2.50;;;17.10;99.90;;;;;;5036925;28;20044;-80
2022/08/29 01:16:49;;;;;;;6.47;2.35;;;17.10;99.90;;;;;;5050954;28;20377;-79
2022/08/29 01:19:18;;;;;;;6.80;2.50;;;17.10;99.90;;;;;;5067620;28;20040;-79
2022/08/29 01:21:53;;;;;;;5.95;2.28;;;17.00;99.90;;;;;;5050984;28;20040;-79
2022/08/29 01:24:36;;;;;;;6.82;2.50;;;17.00;99.90;;;;;;5050518;28;20131;-79
2022/08/29 01:27:02;;;;;;;7.20;2.50;;;17.00;99.90;;;;;;5051107;28;20439;-79
2022/08/29 01:29:28;;;;;;;7.00;2.97;;;17.00;99.90;;;;;;5050808;28;20040;-79
2022/08/29 01:31:54;;;;;;;8.48;2.83;;;17.00;99.90;;;;;;5050782;28;20045;-79
2022/08/29 01:34:21;;;;;;;6.45;2.22;;;16.90;99.90;;;;;;5050874;28;20072;-79
2022/08/29 01:36:56;;;;;;;7.43;2.65;;;16.90;99.90;;;;;;5033906;28;20047;-79
2022/08/29 01:39:25;;;;;;;7.32;2.65;;;16.90;99.90;;;;;;5050958;28;20496;-79
2022/08/29 01:41:51;;;;;;;8.43;2.42;;;16.80;99.90;;;;;;5050216;28;20114;-79
2022/08/29 01:44:19;;;;;;;7.82;2.88;;;16.80;99.90;;;;;;5050420;28;20080;-79
2022/08/29 01:46:50;;;;;;;5.55;2.55;;;16.80;99.90;;;;;;5034016;28;20455;-79
2022/08/29 01:49:17;;;;;;;5.03;2.70;;;16.80;99.90;;;;;;5018013;28;20078;-79
2022/08/29 01:51:43;;;;;;;6.18;2.85;;;16.80;99.90;;;;;;5050704;28;20056;-79
2022/08/29 01:54:10;;;;;;;7.38;2.88;;;16.70;99.90;;;;;;5033815;28;20548;-79
2022/08/29 01:56:42;;;;;;;6.43;2.63;;;16.70;99.90;;;;;;5050407;28;20041;-79
2022/08/29 01:59:10;;;;;;;8.32;2.50;;;16.70;99.90;;;;;;5067103;28;20186;-79
2022/08/29 02:01:43;;;;;;;5.97;2.40;;;16.70;99.90;;;;;;5066784;28;20048;-79
2022/08/29 02:04:09;;;;;;;8.10;2.63;;;16.70;99.90;;;;;;5033371;28;20040;-79
2022/08/29 02:06:35;;;;;;;7.80;3.15;;;16.70;99.90;;;;;;5034022;28;20366;-79
2022/08/29 02:09:03;;;;;;;5.03;2.47;;;16.70;99.90;;;;;;5038854;28;20033;-79
2022/08/29 02:11:28;;;;;;;7.18;2.60;;;16.80;99.90;;;;;;5054037;28;20373;-79
2022/08/29 02:13:56;;;;;;;8.27;2.20;;;16.80;99.90;;;;;;5070142;28;20037;-79
2022/08/29 02:16:24;;;;;;;7.90;2.38;;;16.80;99.90;;;;;;5070355;28;20128;-79
2022/08/29 02:18:50;;;;;;;8.63;2.83;;;16.70;99.90;;;;;;5069988;28;20037;-79
2022/08/29 02:21:20;;;;;;;4.53;2.10;;;16.70;99.90;;;;;;5070484;28;20123;-79
2022/08/29 02:23:48;;;;;;;7.38;2.40;;;16.70;99.90;;;;;;5070578;28;20479;-79
2022/08/29 02:26:15;;;;;;;3.38;1.80;;;16.80;99.90;;;;;;5036086;28;20048;-79
2022/08/29 02:28:40;;;;;;;;;;;16.70;99.90;;;;;;5034165;28;20041;-79
2022/08/29 02:31:07;;;;;;;5.05;1.90;;;16.70;99.90;;;;;;5050340;28;19921;-79
2022/08/29 02:33:34;;;;;;;5.43;2.03;;;16.70;99.90;;;;;;5050463;28;20243;-79
2022/08/29 02:36:01;;;;;;;6.00;2.00;;;16.70;99.90;;;;;;5052770;28;20044;-79
2022/08/29 02:38:27;;;;;;;;;;;16.70;99.90;;;;;;5054292;28;20037;-79
2022/08/29 02:40:53;;;;;;;5.40;2.05;;;16.70;99.90;;;;;;5053609;28;19939;-79
2022/08/29 02:43:20;;;;;;;7.43;2.10;;;16.70;99.90;;;;;;5054221;28;20817;-79
2022/08/29 02:45:47;;;;;;;5.75;2.28;;;16.70;99.90;;;;;;5037578;28;20085;-79
2022/08/29 02:48:13;;;;;;;11.00;2.47;;;16.80;99.90;;;;;;5020832;28;20048;-79
2022/08/29 02:50:47;;;;;;;5.63;1.92;;;16.80;99.90;;;;;;5037432;28;20036;-80
2022/08/29 02:53:17;;;;;;;6.88;2.28;;;16.80;99.90;;;;;;5037230;28;20051;-79
2022/08/29 02:55:42;;;;;;;7.28;2.40;;;16.80;99.90;;;;;;5053806;28;20048;-79
2022/08/29 02:58:08;;;;;;;6.13;2.22;;;16.90;99.90;;;;;;5030972;28;20124;-79
2022/08/29 03:00:34;;;;;;;9.20;2.70;;;17.00;99.90;;;;;;5053456;28;20045;-79
2022/08/29 03:03:01;;;;;;;5.35;2.17;;;16.90;99.90;;;;;;5053329;28;20148;-79
2022/08/29 03:05:32;;;;;;;4.22;2.05;;;16.90;99.90;;;;;;5053295;28;20040;-79
2022/08/29 03:07:58;;;;;;;5.95;2.08;;;16.90;99.90;;;;;;5053575;28;20354;-79
2022/08/29 03:10:24;;;;;;;8.52;2.80;;;16.90;99.90;;;;;;5053419;28;20045;-79
2022/08/29 03:12:50;;;;;;;6.47;2.13;;;16.90;99.90;;;;;;5069835;28;20048;-79
2022/08/29 03:15:17;;;;;;;5.38;2.10;;;16.90;99.90;;;;;;5060474;28;20040;-80
2022/08/29 03:17:43;;;;;;;;;;;16.90;99.90;;;;;;5073834;28;20043;-79
2022/08/29 03:20:11;;;;;;;6.53;1.92;;;16.80;99.90;;;;;;5073701;28;19977;-79
2022/08/29 03:22:36;;;;;;;6.10;2.30;;;16.80;99.90;;;;;;5073291;28;20051;-79
2022/08/29 03:25:04;;;;;;;6.05;2.17;;;16.80;99.90;;;;;;5073033;28;20044;-79
2022/08/29 03:27:31;;;;;;;4.28;2.20;;;16.70;99.90;;;;;;5056307;28;20043;-79
2022/08/29 03:29:57;;;;;;;6.10;2.13;;;16.70;99.90;;;;;;5073028;28;20404;-80
2022/08/29 03:32:23;;;;;;;8.57;2.20;;;16.70;99.90;;;;;;5067072;28;20055;-79
2022/08/29 03:34:49;;;;;;;4.93;1.90;;;16.70;99.90;;;;;;5053599;28;20544;-79
2022/08/29 03:37:15;;;;;;;5.30;2.30;;;16.70;99.90;;;;;;5036296;28;20076;-80
2022/08/29 03:39:40;;;;;;;6.38;2.20;;;16.70;99.90;;;;;;5036483;28;20044;-80
2022/08/29 03:42:07;;;;;;;7.72;2.13;;;16.70;99.90;;;;;;5052718;28;20033;-79
2022/08/29 03:44:38;;;;;;;7.53;2.00;;;16.70;99.90;;;;;;5036266;28;20133;-79
2022/08/29 03:47:04;;;;;;;8.25;2.00;;;16.70;99.90;;;;;;5051849;28;20055;-79
2022/08/29 03:49:30;;;;;;;6.47;2.08;;;16.70;99.90;;;;;;5052998;28;20133;-80
2022/08/29 03:51:56;;;;;;;7.60;2.28;;;16.70;99.90;;;;;;5035757;28;20080;-79
2022/08/29 03:54:22;;;;;;;6.20;2.20;;;16.80;99.90;;;;;;5052846;28;20088;-79
2022/08/29 03:56:48;;;;;;;5.70;2.28;;;16.80;99.90;;;;;;5035662;28;20037;-79
2022/08/29 03:59:15;;;;;;;;;;;16.80;99.90;;;;;;5052435;28;20033;-79
2022/08/29 04:01:40;;;;;;;6.97;2.17;;;16.70;99.90;;;;;;5051881;28;19924;-79
2022/08/29 04:04:07;;;;;;;7.80;1.92;;;16.70;99.90;;;;;;5051980;28;20041;-79
2022/08/29 04:06:32;;;;;;;5.95;2.03;;;16.80;99.90;;;;;;5035048;28;20041;-79
2022/08/29 04:08:59;;;;;;;8.52;2.05;;;16.80;99.90;;;;;;5054316;28;20507;-79
2022/08/29 04:11:25;;;;;;;;;;;16.70;99.90;;;;;;5072077;28;20036;-80
2022/08/29 04:13:53;;;;;;;10.68;2.60;;;16.80;99.90;;;;;;5071469;28;19968;-79
2022/08/29 04:16:22;;;;;;;5.55;1.70;;;16.70;99.90;;;;;;5055300;28;20044;-79
2022/08/29 04:18:48;;;;;;;5.07;1.50;;;16.80;99.90;;;;;;5071430;28;20052;-79
2022/08/29 04:21:14;;;;;;;5.45;2.05;;;16.80;99.90;;;;;;5054628;28;20040;-80
2022/08/29 04:23:40;;;;;;;7.93;1.73;;;16.80;99.90;;;;;;5053256;28;20098;-79
2022/08/29 04:26:17;;;;;;;8.93;1.85;;;16.80;99.90;;;;;;5035070;28;20049;-79
2022/08/29 04:28:43;;;;;;;;;;;16.90;99.90;;;;;;5069343;28;20085;-79
2022/08/29 04:31:18;;;;;;;8.65;1.60;;;16.80;99.90;;;;;;5035099;28;19924;-79
2022/08/29 04:33:45;;;;;;;6.60;1.80;;;16.80;99.90;;;;;;5035341;28;20046;-80
2022/08/29 04:36:11;;;;;;;6.50;1.63;;;16.80;99.90;;;;;;5051879;28;20492;-79
2022/08/29 04:38:37;;;;;;;;;;;16.80;99.90;;;;;;5052076;28;20060;-79
2022/08/29 04:41:08;;;;;;;6.25;1.77;;;16.80;99.90;;;;;;5051932;28;19917;-79
2022/08/29 04:43:34;;;;;;;7.20;2.05;;;16.80;99.90;;;;;;5051639;28;20536;-79
2022/08/29 04:46:00;;;;;;;2.92;1.48;;;16.80;99.90;;;;;;5034978;28;20168;-79
2022/08/29 04:48:26;;;;;;;8.80;2.30;;;16.80;99.90;;;;;;5051631;28;20132;-79
2022/08/29 04:50:57;;;;;;;6.05;2.08;;;16.80;99.90;;;;;;5051667;28;20036;-79
2022/08/29 04:53:24;;;;;;;4.50;2.00;;;16.80;99.90;;;;;;5034670;28;20053;-79
2022/08/29 04:56:02;;;;;;;8.80;2.40;;;16.80;99.90;;;;;;5051545;28;20041;-79
2022/08/29 04:58:29;;;;;;;6.90;2.03;;;16.80;99.90;;;;;;5050964;28;20052;-79
2022/08/29 05:00:54;;;;;;;4.07;2.05;;;16.80;99.90;;;;;;5053756;28;20037;-79
2022/08/29 05:03:22;;;;;;;6.38;2.22;;;16.70;99.90;;;;;;5071282;28;20051;-79
2022/08/29 05:05:59;;;;;;;7.35;2.28;;;16.70;99.90;;;;;;5054628;28;20044;-79
2022/08/29 05:08:25;;;;;;;4.63;2.40;;;16.60;99.90;;;;;;5071099;28;20051;-79
2022/08/29 05:10:51;;;;;;;9.10;2.15;;;16.60;99.90;;;;;;5054483;28;20119;-80
2022/08/29 05:13:17;;;;;;;7.07;2.15;;;16.60;99.90;;;;;;5054323;28;20532;-79
2022/08/29 05:15:44;;;;;;;7.53;2.25;;;16.60;99.90;;;;;;5071487;28;20063;-79
2022/08/29 05:18:12;;;;;;;6.88;2.17;;;16.70;99.90;;;;;;5054662;28;20037;-79
2022/08/29 05:20:47;;;;;;;8.15;1.98;;;16.70;99.90;;;;;;5068821;28;20036;-79
2022/08/29 05:23:14;;;;;;;6.25;1.98;;;16.70;99.90;;;;;;5054377;28;20041;-79
2022/08/29 05:25:40;;;;;;;5.38;1.90;;;16.70;99.90;;;;;;5071129;28;20044;-79
2022/08/29 05:28:06;;;;;;;5.30;2.28;;;16.80;99.90;;;;;;5054291;28;20412;-79
2022/08/29 05:30:32;;;;;;;4.30;1.60;;;16.90;99.90;;;;;;5071239;28;20051;-79
2022/08/29 05:32:58;;;;;;;4.55;1.50;;;16.90;99.90;;;;;;5070771;28;20049;-79
2022/08/29 05:35:24;;;;;;;4.47;1.70;;;16.90;99.90;;;;;;5070755;28;20036;-80
2022/08/29 05:37:50;;;;;;;5.78;1.70;;;17.00;99.90;;;;;;5040822;28;20127;-79
2022/08/29 05:40:16;;;;;;;5.82;1.77;;;17.00;99.90;;;;;;5050664;28;20040;-79
2022/08/29 05:42:42;;;;;;;7.25;1.85;;;17.10;99.90;;;;;;5050796;28;20037;-79
2022/08/29 05:45:09;;;;;;;5.35;1.85;;;17.10;99.90;;;;;;5034153;28;20527;-79
2022/08/29 05:47:34;;;;;;;6.70;1.70;;;17.20;99.90;;;;;;5050834;28;20185;-79
2022/08/29 05:50:00;;;;;;;4.43;1.52;;;17.20;99.90;;;;;;5034459;28;20086;-79
2022/08/29 05:52:27;;;;;;;4.25;1.50;;;17.20;99.90;;;;;;5017394;28;20053;-79
2022/08/29 05:54:52;;;;;;;4.03;1.70;;;17.30;99.90;;;;;;5048195;28;20182;-79
2022/08/29 05:57:20;;;;;;;6.90;1.80;;;17.30;99.90;;;;;;5054410;28;20068;-79
2022/08/29 05:59:51;;;;;;;5.95;2.03;;;17.30;99.90;;;;;;5054060;28;20106;-79
2022/08/29 06:02:18;;;;;;;4.55;1.55;;;17.30;99.90;;;;;;5070469;28;20041;-79
2022/08/29 06:04:44;;;;;;;7.95;1.70;;;17.30;99.90;;;;;;5053757;28;20032;-79
2022/08/29 06:07:10;;;;;;;5.60;1.63;;;17.40;99.90;;;;;;5054214;28;20043;-80
2022/08/29 06:09:37;;;;;;;4.40;1.75;;;17.40;99.90;;;;;;5073020;28;20043;-79
2022/08/29 06:12:04;;;;;;;3.85;1.60;;;17.50;99.90;;;;;;5075048;28;20044;-79
2022/08/29 06:14:30;;;;;;;6.78;2.15;;;17.60;99.90;;;;;;5074248;28;20037;-79
2022/08/29 06:16:56;;;;;;;5.22;1.70;;;17.60;99.90;;;;;;5057907;28;20545;-79
2022/08/29 06:19:22;;;;;;;6.35;2.03;;;17.70;99.90;;;;;;5058009;28;20487;-80
2022/08/29 06:21:48;;;;;;;7.38;1.83;;;17.70;99.90;;;;;;5074791;28;20045;-79
2022/08/29 06:24:14;;;;;;;5.30;1.67;;;17.70;99.90;;;;;;5057991;28;20049;-79
2022/08/29 06:26:41;;;;;;;4.80;1.45;;;17.80;99.90;;;;;;5058154;28;20457;-79
2022/08/29 06:29:09;;;;;;;5.60;1.73;;;17.90;99.90;;;;;;5058250;28;20054;-79
2022/08/29 06:31:35;;;;;;;7.70;1.80;;;18.00;99.90;;;;;;5074130;28;20182;-79
2022/08/29 06:34:03;;;;;;;5.22;1.83;;;18.10;99.90;;;;;;5074223;28;20041;-80
2022/08/29 06:36:30;;;;;;;5.25;1.80;;;18.20;99.90;;;;;;5074176;28;20224;-80
2022/08/29 06:38:57;;;;;;;6.63;2.33;;;18.30;99.90;;;;;;5057644;28;20036;-80
2022/08/29 06:41:24;;;;;;;4.60;1.80;;;18.30;99.90;;;;;;5041098;28;20037;-80
2022/08/29 06:43:50;;;;;;;;;;;18.30;99.90;;;;;;5057943;28;20125;-79
2022/08/29 06:46:37;;;;;;;6.75;2.20;;;18.40;99.90;;;;;;5066977;28;19917;-80
2022/08/29 06:49:06;;;;;;;7.80;1.80;;;18.40;99.90;;;;;;5054057;28;20098;-80
2022/08/29 06:51:34;;;;;;;9.07;2.08;;;18.50;99.90;;;;;;5053957;28;20090;-80
2022/08/29 06:54:03;;;;;;;6.22;1.90;;;18.50;99.90;;;;;;5053754;28;20041;-80
2022/08/29 06:56:29;;;;;;;6.30;2.13;;;18.60;99.90;;;;;;5053999;28;20037;-80
2022/08/29 06:58:55;;;;;;;7.05;2.25;;;18.70;99.90;;;;;;5053932;28;20095;-80
2022/08/29 07:01:22;;;;;;;13.50;2.58;;;18.80;99.90;;;;;;5037290;28;20479;-80
2022/08/29 07:03:47;;;;;;;7.07;2.35;;;18.90;99.90;;;;;;5051238;28;20094;-80
2022/08/29 07:06:15;;;;;;;9.70;2.65;;;19.00;99.90;;;;;;5073696;28;20052;-80
2022/08/29 07:08:41;;;;;;;7.45;2.22;;;19.10;99.90;;;;;;5073816;28;20044;-79
2022/08/29 07:11:07;;;;;;;7.75;2.20;;;19.10;99.90;;;;;;5057006;28;20060;-79
2022/08/29 07:13:34;;;;;;;11.23;2.78;;;19.20;99.90;;;;;;5056855;28;20083;-80
2022/08/29 07:16:00;;;;;;;7.22;2.40;;;19.20;99.90;;;;;;5073378;28;20048;-80
2022/08/29 07:18:26;;;;;;;13.35;2.65;;;19.20;99.90;;;;;;5057066;28;20476;-79
2022/08/29 07:20:53;;;;;;;10.02;2.72;;;19.30;99.90;;;;;;5039376;28;20037;-80
2022/08/29 07:23:19;;;;;;;10.05;2.40;;;19.30;99.90;;;;;;5037075;28;20049;-80
2022/08/29 07:25:45;;;;;;;8.55;2.80;;;19.40;99.90;;;;;;5036755;28;20044;-79
2022/08/29 07:28:11;;;;;;;6.20;2.20;;;19.40;99.90;;;;;;5053527;28;20041;-80
2022/08/29 07:30:36;;;;;;;9.80;2.40;;;19.40;99.90;;;;;;5053618;28;20044;-80
2022/08/29 07:33:03;;;;;;;10.43;2.75;;;19.50;99.90;;;;;;5053025;28;20041;-79
2022/08/29 07:35:29;;;;;;;11.68;2.75;;;19.50;99.90;;;;;;5036538;28;20477;-80
2022/08/29 07:38:00;;;;;;;11.70;2.60;;;19.70;99.90;;;;;;5052888;28;20040;-80
2022/08/29 07:40:25;;;;;;;6.35;2.03;;;19.90;99.90;;;;;;5053281;28;20044;-80
2022/08/29 07:42:51;;;;;;;9.52;2.40;;;20.50;99.90;;;;;;5036582;28;20051;-80
2022/08/29 07:45:17;;;;;;;7.47;2.00;;;20.90;99.90;;;;;;5036194;28;20041;-80
2022/08/29 07:47:43;;;;;;;8.30;2.05;;;21.20;99.90;;;;;;5053025;28;20044;-80
2022/08/29 07:50:11;;;;;;;6.43;1.90;;;21.20;99.90;;;;;;5053121;28;20128;-80
2022/08/29 07:52:37;;;;;;;8.95;2.33;;;21.20;99.90;;;;;;5052526;28;20136;-80
2022/08/29 07:55:04;;;;;;;4.85;1.88;;;21.30;99.90;;;;;;5052933;28;20144;-80
2022/08/29 07:57:30;;;;;;;5.65;2.03;;;21.30;99.90;;;;;;5052980;28;20539;-80
2022/08/29 07:59:56;;;;;;;7.53;1.98;;;21.20;99.90;;;;;;5053068;28;20434;-80
2022/08/29 08:02:22;;;;;;;6.05;1.98;;;21.20;99.90;;;;;;5052941;28;20033;-80
2022/08/29 08:04:47;;;;;;;5.38;1.85;;;21.20;99.90;;;;;;5036192;28;20041;-80
2022/08/29 08:07:13;;;;;;;7.60;2.08;;;21.40;99.90;;;;;;5052367;28;20392;-80
2022/08/29 08:09:39;;;;;;;6.65;1.73;;;21.50;99.90;;;;;;5052766;28;20040;-80
2022/08/29 08:12:05;;;;;;;6.22;1.70;;;21.60;99.90;;;;;;5052420;28;20548;-80
2022/08/29 08:14:32;;;;;;;8.65;2.20;;;21.50;99.90;;;;;;5052904;28;20049;-80
2022/08/29 08:16:58;;;;;;;6.78;2.72;;;21.80;99.90;;;;;;5052127;28;20037;-80
2022/08/29 08:19:24;;;;;;;9.77;2.33;;;22.00;99.90;;;;;;5052260;28;20040;-80
2022/08/29 08:21:50;;;;;;;8.57;2.38;;;21.90;99.90;;;;;;5035762;28;20071;-80
2022/08/29 08:24:20;;;;;;;6.15;2.47;;;21.80;99.90;;;;;;5068530;28;20059;-80
2022/08/29 08:26:46;;;;;;;10.00;2.58;;;21.60;99.90;;;;;;5072406;28;20048;-80
2022/08/29 08:29:12;;;;;;;12.43;2.65;;;21.50;99.90;;;;;;5055665;28;20052;-80
2022/08/29 08:31:45;;;;;;;10.00;2.85;;;21.50;99.90;;;;;;5071767;28;20044;-80
2022/08/29 08:34:14;;;;;;;14.88;3.00;;;21.60;99.90;;;;;;5055455;28;20037;-80
2022/08/29 08:36:42;;;;;;;11.70;2.95;;;21.90;99.90;;;;;;5055249;28;20044;-80
2022/08/29 08:39:08;;;;;;;10.27;2.65;;;22.10;99.90;;;;;;5055020;28;20068;-80
2022/08/29 08:42:02;;;;;;;8.88;3.08;;;22.30;99.90;;;;;;5043954;28;20539;-80
2022/08/29 08:44:48;;;;;;;8.90;2.30;;;22.40;99.90;;;;;;5052316;28;20085;-80
2022/08/29 08:47:23;;;;;;;10.27;2.92;;;22.50;99.90;;;;;;5051827;28;20041;-80
2022/08/29 08:50:02;;;;;;;9.35;2.50;;;22.50;99.90;;;;;;5051804;28;20051;-80
2022/08/29 08:52:43;;;;;;;8.82;2.60;;;22.70;99.90;;;;;;5051528;28;20053;-80
2022/08/29 08:55:32;;;;;;;7.65;3.00;;;22.90;99.90;;;;;;5051549;28;20040;-80
2022/08/29 08:58:12;;;;;;;6.70;2.65;;;23.10;99.90;;;;;;5067968;28;20071;-80
2022/08/29 09:00:46;;;;;;;11.15;2.80;;;23.20;99.90;;;;;;5051549;28;20037;-81
2022/08/29 09:03:12;;;;;;;8.90;2.95;;;23.00;99.90;;;;;;5051948;28;20152;-80
2022/08/29 09:05:56;;;;;;;;;;;22.90;99.90;;;;;;5035253;28;20131;-80
2022/08/29 09:08:36;;;;;;;7.38;2.42;;;23.00;99.90;;;;;;5034660;28;19956;-80
2022/08/29 09:11:53;;;;;;;10.70;2.40;;;23.30;99.90;;;;;;5051159;28;20048;-80
2022/08/29 09:14:48;;;;;;;9.70;2.70;;;23.20;99.90;;;;;;5051078;28;20033;-80
2022/08/29 09:17:31;;;;;;;9.60;2.80;;;23.20;99.90;;;;;;5033901;28;20052;-80
2022/08/29 09:19:59;;;;;;;7.05;2.40;;;23.00;99.90;;;;;;5067902;28;20055;-80
2022/08/29 09:22:28;;;;;;;11.18;2.53;;;22.80;99.90;;;;;;5067773;28;20055;-80
2022/08/29 09:25:02;;;;;;;5.43;2.50;;;22.70;99.90;;;;;;5051081;28;20068;-80
2022/08/29 09:27:30;;;;;;;8.82;2.70;;;22.70;99.90;;;;;;5051285;28;20040;-80
2022/08/29 09:30:10;;;;;;;6.57;2.58;;;22.50;99.90;;;;;;5050975;28;20087;-80
2022/08/29 09:33:15;;;;;;;9.18;2.70;;;22.40;99.90;;;;;;5051219;28;20083;-80
2022/08/29 09:35:48;;;;;;;6.70;2.47;;;22.20;99.90;;;;;;5033384;28;20045;-80
2022/08/29 09:38:16;;;;;;;10.02;2.63;;;22.10;99.90;;;;;;5033459;28;20397;-80
2022/08/29 09:40:53;;;;;;;8.30;2.85;;;22.10;99.90;;;;;;5025318;28;20393;-80
2022/08/29 09:43:42;;;;;;;;;;;22.00;99.90;;;;;;5034414;28;20132;-80
2022/08/29 09:46:07;;;;;;;10.02;2.92;;;22.00;99.90;;;;;;5044969;28;20004;-80
2022/08/29 09:48:36;;;;;;;8.23;2.45;;;22.20;99.90;;;;;;5051869;28;20557;-80
2022/08/29 09:51:13;;;;;;;12.85;2.83;;;22.20;99.90;;;;;;5070561;28;20049;-80
2022/08/29 09:53:40;;;;;;;5.68;2.33;;;22.50;99.90;;;;;;5087474;28;20086;-80
2022/08/29 09:56:14;;;;;;;8.00;2.78;;;22.80;99.90;;;;;;5054202;28;20048;-80
2022/08/29 09:58:41;;;;;;;8.65;2.50;;;23.30;99.90;;;;;;5071084;28;20545;-80
2022/08/29 10:01:26;;;;;;;7.10;2.13;;;24.00;99.90;;;;;;5070645;28;20090;-80
2022/08/29 10:04:01;;;;;;;5.35;1.98;;;24.30;99.90;;;;;;5043111;28;20053;-80
2022/08/29 10:06:31;;;;;;;6.50;2.10;;;24.30;99.90;;;;;;5050497;28;20044;-80
2022/08/29 10:09:24;;;;;;;6.63;2.13;;;24.50;99.90;;;;;;5050696;28;20041;-80
2022/08/29 10:12:02;;;;;;;7.68;2.22;;;24.50;99.90;;;;;;5032106;28;20404;-80
2022/08/29 10:14:40;;;;;;;6.90;2.65;;;24.20;99.90;;;;;;5033995;28;20103;-80
2022/08/29 10:20:22;;;;;;;9.43;2.20;;;23.50;99.90;;;;;;5050294;28;20094;-80
2022/08/29 10:23:00;;;;;;;6.03;2.35;;;23.30;99.90;;;;;;5050959;28;20056;-80
2022/08/29 10:25:39;;;;;;;7.97;2.30;;;23.10;99.90;;;;;;5050815;28;20464;-80
2022/08/29 10:28:38;;;;;;;11.05;2.15;;;23.00;99.90;;;;;;5050495;28;20361;-80
2022/08/29 10:31:13;;;;;;;9.00;2.45;;;22.70;99.90;;;;;;5034022;28;20509;-80
2022/08/29 10:33:56;;;;;;;8.02;2.50;;;22.80;99.90;;;;;;5050240;28;20045;-80
2022/08/29 10:36:31;;;;;;;9.52;2.58;;;22.80;99.90;;;;;;5050873;28;20427;-80
2022/08/29 10:39:33;;;;;;;9.50;2.63;;;22.80;99.90;;;;;;5050076;28;20052;-80
2022/08/29 10:42:08;;;;;;;6.18;2.22;;;22.80;99.90;;;;;;5050498;28;20037;-80
2022/08/29 10:45:08;;;;;;;6.30;2.40;;;22.90;99.90;;;;;;5052007;28;20080;-80
2022/08/29 10:47:51;;;;;;;7.10;2.28;;;23.00;99.90;;;;;;5053342;28;20127;-80
2022/08/29 10:50:48;;;;;;;9.85;2.55;;;22.90;99.90;;;;;;5069929;28;20102;-80
2022/08/29 10:53:21;;;;;;;7.55;1.90;;;22.80;99.90;;;;;;5069778;28;20480;-80
2022/08/29 10:55:58;;;;;;;7.25;2.35;;;22.70;99.90;;;;;;5088098;28;20101;-80
2022/08/29 10:58:30;;;;;;;10.25;2.50;;;22.80;99.90;;;;;;5074005;28;20036;-80
2022/08/29 11:01:22;;;;;;;7.00;2.13;;;22.60;99.90;;;;;;5060961;28;20363;-80
2022/08/29 11:04:16;;;;;;;6.28;2.13;;;22.80;99.90;;;;;;5053027;28;20127;-80
2022/08/29 11:06:57;;;;;;;8.60;2.35;;;22.80;99.90;;;;;;5053835;28;20049;-80
2022/08/29 11:09:32;;;;;;;7.07;2.70;;;22.80;99.90;;;;;;5053833;28;20041;-80
2022/08/29 11:12:16;;;;;;;6.97;2.05;;;23.00;99.90;;;;;;5053288;28;20076;-80
2022/08/29 11:14:57;;;;;;;10.48;2.72;;;23.00;99.90;;;;;;5037375;28;20338;-80
2022/08/29 11:17:28;;;;;;;6.05;2.20;;;23.10;99.90;;;;;;5054346;28;20119;-80
2022/08/29 11:20:08;;;;;;;6.28;2.28;;;23.00;99.90;;;;;;5073497;28;20041;-80
2022/08/29 11:23:05;;;;;;;8.23;2.38;;;22.90;99.90;;;;;;5073530;28;20047;-80
2022/08/29 11:25:33;;;;;;;;;;;22.80;99.90;;;;;;5039529;28;20452;-80
2022/08/29 11:28:07;;;;;;;7.43;2.33;;;22.70;99.90;;;;;;5073347;28;19969;-80
2022/08/29 11:31:00;;;;;;;5.68;2.30;;;22.50;99.90;;;;;;5073406;28;20129;-80
2022/08/29 11:33:45;;;;;;;10.05;2.55;;;22.10;99.90;;;;;;5056875;28;20085;-80
2022/08/29 11:36:47;;;;;;;7.47;2.25;;;22.10;99.90;;;;;;5068879;28;20075;-80
2022/08/29 11:39:28;;;;;;;7.85;2.28;;;22.10;99.90;;;;;;5052958;28;20091;-80
2022/08/29 11:41:56;;;;;;;10.57;2.10;;;22.10;99.90;;;;;;5052978;28;20123;-80
2022/08/29 11:44:22;;;;;;;9.02;2.38;;;22.10;99.90;;;;;;5069849;28;20037;-80
2022/08/29 11:46:50;;;;;;;10.05;2.22;;;21.90;99.90;;;;;;5053224;28;20132;-80
2022/08/29 11:49:26;;;;;;;7.20;2.10;;;22.10;99.90;;;;;;5053123;28;20547;-80
2022/08/29 11:51:59;;;;;;;9.27;2.47;;;22.10;99.90;;;;;;5035981;28;20041;-80
2022/08/29 11:54:27;;;;;;;9.07;2.40;;;22.00;99.90;;;;;;5052757;28;20045;-80
2022/08/29 11:56:59;;;;;;;6.68;2.10;;;22.00;99.90;;;;;;5052788;28;20048;-80
2022/08/29 11:59:47;;;;;;;7.45;2.22;;;22.10;99.90;;;;;;5053329;28;20468;-80
2022/08/29 12:02:29;;;;;;;6.28;2.00;;;22.30;99.90;;;;;;5052607;28;20120;-80
2022/08/29 12:05:03;;;;;;;6.07;2.08;;;22.30;99.90;;;;;;5052531;28;20037;-80
2022/08/29 12:07:41;;;;;;;5.68;2.08;;;22.20;99.90;;;;;;5052494;28;20037;-80
2022/08/29 12:10:18;;;;;;;5.47;1.92;;;22.20;99.90;;;;;;5035990;28;20036;-79
2022/08/29 12:12:49;;;;;;;6.50;2.08;;;22.30;99.90;;;;;;5052154;28;20045;-80
2022/08/29 12:15:34;;;;;;;5.80;1.98;;;22.40;99.90;;;;;;5052422;28;20041;-80
2022/08/29 12:18:11;;;;;;;13.35;2.38;;;22.40;99.90;;;;;;5052668;28;20047;-80
2022/08/29 12:20:46;;;;;;;6.00;2.08;;;22.50;99.90;;;;;;5035698;28;20041;-80
2022/08/29 12:23:12;;;;;;;7.60;1.88;;;22.50;99.90;;;;;;5052476;28;20079;-80
2022/08/29 12:25:55;;;;;;;6.72;1.90;;;22.70;99.90;;;;;;5052266;28;20076;-80
2022/08/29 12:28:24;;;;;;;6.65;1.83;;;22.50;99.90;;;;;;5035770;28;20041;-80
2022/08/29 12:31:01;;;;;;;8.18;1.90;;;22.60;99.90;;;;;;5051582;28;20044;-80
2022/08/29 12:33:38;;;;;;;6.05;2.00;;;22.80;99.90;;;;;;5072221;28;20049;-80
2022/08/29 12:36:17;;;;;;;8.23;2.33;;;22.80;99.90;;;;;;5072260;28;20036;-80
2022/08/29 12:39:01;;;;;;;9.13;2.08;;;22.70;99.90;;;;;;5072172;28;20068;-80
2022/08/29 12:41:41;;;;;;;5.65;1.77;;;22.60;99.90;;;;;;5072160;28;20044;-80
2022/08/29 12:44:12;;;;;;;4.43;1.75;;;22.60;99.90;;;;;;5071637;28;20110;-80
2022/08/29 12:46:41;;;;;;;5.57;1.77;;;22.70;99.90;;;;;;5055581;28;20151;-80
2022/08/29 12:49:50;;;;;;;6.05;1.88;;;22.80;99.90;;;;;;5051650;28;20155;-80
2022/08/29 12:52:23;;;;;;;5.78;1.70;;;22.80;99.90;;;;;;4997943;28;20439;-79
2022/08/29 12:54:49;;;;;;;5.53;1.95;;;22.80;99.90;;;;;;5047271;28;20049;-80
2022/08/29 12:57:18;;;;;;;;;;;22.90;99.90;;;;;;5051895;28;20370;-80
2022/08/29 12:59:51;;;;;;;5.43;1.60;;;22.90;99.90;;;;;;5052081;28;19959;-80
2022/08/29 13:02:30;;;;;;;6.13;1.90;;;22.90;99.90;;;;;;5051468;28;20508;-80
2022/08/29 13:04:57;;;;;;;5.47;1.80;;;22.80;99.90;;;;;;5051680;28;20079;-80
2022/08/29 13:07:25;;;;;;;5.13;1.77;;;22.80;99.90;;;;;;5051172;28;20036;-80
2022/08/29 13:09:59;;;;;;;5.97;1.90;;;22.90;99.90;;;;;;5051177;28;20043;-80
2022/08/29 13:12:27;;;;;;;6.10;1.90;;;22.90;99.90;;;;;;5050949;28;20041;-80